sensor_id;sensor_type;location;lat;lon;timestamp;temperature;humidity
45491;DHT22;31237;45.586;13.782;2023-02-26T00:02:24;3.90;99.90
45491;DHT22;31237;45.586;13.782;2023-02-26T00:04:50;3.80;99.90
45491;DHT22;31237;45.586;13.782;2023-02-26T00:07:16;3.80;99.90
45491;DHT22;31237;45.586;13.782;2023-02-26T00:09:41;3.70;99.90
45491;DHT22;31237;45.586;13.782;2023-02-26T00:12:10;3.70;99.90
45491;DHT22;31237;45.586;13.782;2023-02-26T00:14:38;3.60;99.90
45491;DHT22;31237;45.586;13.782;2023-02-26T00:19:46;3.60;99.90
45491;DHT22;31237;45.586;13.782;2023-02-26T00:22:12;3.50;99.90
45491;DHT22;31237;45.586;13.782;2023-02-26T00:24:38;3.50;99.90
45491;DHT22;31237;45.586;13.782;2023-02-26T00:27:04;3.50;99.90
45491;DHT22;31237;45.586;13.782;2023-02-26T00:29:29;3.40;99.90
45491;DHT22;31237;45.586;13.782;2023-02-26T00:31:55;3.40;99.90
45491;DHT22;31237;45.586;13.782;2023-02-26T00:34:21;3.40;99.90
45491;DHT22;31237;45.586;13.782;2023-02-26T00:37:09;3.40;99.90
45491;DHT22;31237;45.586;13.782;2023-02-26T00:42:12;3.30;99.90
45491;DHT22;31237;45.586;13.782;2023-02-26T00:44:39;3.30;99.90
45491;DHT22;31237;45.586;13.782;2023-02-26T00:50:20;3.20;99.90
45491;DHT22;31237;45.586;13.782;2023-02-26T00:53:11;3.20;99.90
45491;DHT22;31237;45.586;13.782;2023-02-26T00:55:40;3.20;99.90
45491;DHT22;31237;45.586;13.782;2023-02-26T00:58:06;3.20;99.90
45491;DHT22;31237;45.586;13.782;2023-02-26T01:00:32;3.20;99.90
45491;DHT22;31237;45.586;13.782;2023-02-26T01:02:58;3.20;99.90
45491;DHT22;31237;45.586;13.782;2023-02-26T01:05:24;3.20;99.90
45491;DHT22;31237;45.586;13.782;2023-02-26T01:08:36;3.20;99.90
45491;DHT22;31237;45.586;13.782;2023-02-26T01:10:36;3.20;99.90
45491;DHT22;31237;45.586;13.782;2023-02-26T01:13:02;3.20;99.90
45491;DHT22;31237;45.586;13.782;2023-02-26T01:15:28;3.20;99.90
45491;DHT22;31237;45.586;13.782;2023-02-26T01:20:27;3.20;99.90
45491;DHT22;31237;45.586;13.782;2023-02-26T01:23:04;3.20;99.90
45491;DHT22;31237;45.586;13.782;2023-02-26T01:28:04;3.30;99.90
45491;DHT22;31237;45.586;13.782;2023-02-26T01:30:30;3.30;99.90
45491;DHT22;31237;45.586;13.782;2023-02-26T01:46:36;3.20;99.90
45491;DHT22;31237;45.586;13.782;2023-02-26T01:49:07;3.20;99.90
45491;DHT22;31237;45.586;13.782;2023-02-26T01:54:12;3.10;99.90
45491;DHT22;31237;45.586;13.782;2023-02-26T01:56:38;3.10;99.90
45491;DHT22;31237;45.586;13.782;2023-02-26T01:59:05;3.10;99.90
45491;DHT22;31237;45.586;13.782;2023-02-26T02:01:33;3.10;99.90
45491;DHT22;31237;45.586;13.782;2023-02-26T02:03:59;3.10;99.90
45491;DHT22;31237;45.586;13.782;2023-02-26T02:06:26;3.10;99.90
45491;DHT22;31237;45.586;13.782;2023-02-26T02:08:53;3.10;99.90
45491;DHT22;31237;45.586;13.782;2023-02-26T02:11:20;3.10;99.90
45491;DHT22;31237;45.586;13.782;2023-02-26T02:14:00;3.10;99.90
45491;DHT22;31237;45.586;13.782;2023-02-26T02:32:57;3.20;99.90
45491;DHT22;31237;45.586;13.782;2023-02-26T02:35:37;3.30;99.90
45491;DHT22;31237;45.586;13.782;2023-02-26T02:38:17;3.30;99.90
45491;DHT22;31237;45.586;13.782;2023-02-26T02:40:48;3.30;99.90
45491;DHT22;31237;45.586;13.782;2023-02-26T02:43:21;3.40;99.90
45491;DHT22;31237;45.586;13.782;2023-02-26T02:46:04;3.40;99.90
45491;DHT22;31237;45.586;13.782;2023-02-26T02:48:43;3.50;99.30
45491;DHT22;31237;45.586;13.782;2023-02-26T02:51:15;3.60;98.20
45491;DHT22;31237;45.586;13.782;2023-02-26T02:53:56;3.70;97.40
45491;DHT22;31237;45.586;13.782;2023-02-26T02:56:31;3.70;97.40
45491;DHT22;31237;45.586;13.782;2023-02-26T02:59:36;3.80;96.70
45491;DHT22;31237;45.586;13.782;2023-02-26T03:02:37;3.80;95.70
45491;DHT22;31237;45.586;13.782;2023-02-26T03:05:05;3.80;95.80
45491;DHT22;31237;45.586;13.782;2023-02-26T03:07:33;3.90;95.00
45491;DHT22;31237;45.586;13.782;2023-02-26T03:10:00;3.90;94.60
45491;DHT22;31237;45.586;13.782;2023-02-26T03:12:30;3.90;95.00
45491;DHT22;31237;45.586;13.782;2023-02-26T03:14:56;3.90;94.40
45491;DHT22;31237;45.586;13.782;2023-02-26T03:17:50;3.90;94.70
45491;DHT22;31237;45.586;13.782;2023-02-26T03:20:21;3.90;94.50
45491;DHT22;31237;45.586;13.782;2023-02-26T03:23:00;3.90;94.10
45491;DHT22;31237;45.586;13.782;2023-02-26T03:30:44;3.90;94.30
45491;DHT22;31237;45.586;13.782;2023-02-26T03:33:22;3.90;94.30
45491;DHT22;31237;45.586;13.782;2023-02-26T03:36:17;3.90;94.50
45491;DHT22;31237;45.586;13.782;2023-02-26T03:44:00;4.00;93.60
45491;DHT22;31237;45.586;13.782;2023-02-26T03:46:40;4.00;93.30
45491;DHT22;31237;45.586;13.782;2023-02-26T03:49:21;4.00;93.40
45491;DHT22;31237;45.586;13.782;2023-02-26T03:51:48;4.10;92.40
45491;DHT22;31237;45.586;13.782;2023-02-26T03:54:36;4.00;92.40
45491;DHT22;31237;45.586;13.782;2023-02-26T03:57:03;4.10;92.50
45491;DHT22;31237;45.586;13.782;2023-02-26T03:59:29;4.10;91.80
45491;DHT22;31237;45.586;13.782;2023-02-26T04:02:01;4.10;91.90
45491;DHT22;31237;45.586;13.782;2023-02-26T04:06:58;4.10;92.20
45491;DHT22;31237;45.586;13.782;2023-02-26T04:09:24;4.10;91.40
45491;DHT22;31237;45.586;13.782;2023-02-26T04:11:52;4.10;91.20
45491;DHT22;31237;45.586;13.782;2023-02-26T04:14:19;4.20;90.80
45491;DHT22;31237;45.586;13.782;2023-02-26T04:16:48;4.20;90.80
45491;DHT22;31237;45.586;13.782;2023-02-26T04:19:18;4.20;90.70
45491;DHT22;31237;45.586;13.782;2023-02-26T04:21:44;4.20;90.80
45491;DHT22;31237;45.586;13.782;2023-02-26T04:24:10;4.20;90.80
45491;DHT22;31237;45.586;13.782;2023-02-26T04:26:36;4.20;90.70
45491;DHT22;31237;45.586;13.782;2023-02-26T04:29:02;4.20;90.60
45491;DHT22;31237;45.586;13.782;2023-02-26T04:31:28;4.20;90.30
45491;DHT22;31237;45.586;13.782;2023-02-26T04:33:53;4.20;90.40
45491;DHT22;31237;45.586;13.782;2023-02-26T04:36:19;4.20;90.10
45491;DHT22;31237;45.586;13.782;2023-02-26T04:38:45;4.20;89.50
45491;DHT22;31237;45.586;13.782;2023-02-26T04:41:11;4.20;89.30
45491;DHT22;31237;45.586;13.782;2023-02-26T04:43:36;4.20;89.10
45491;DHT22;31237;45.586;13.782;2023-02-26T04:46:02;4.20;89.20
45491;DHT22;31237;45.586;13.782;2023-02-26T04:48:28;4.20;90.00
45491;DHT22;31237;45.586;13.782;2023-02-26T04:50:54;4.20;90.20
45491;DHT22;31237;45.586;13.782;2023-02-26T04:53:20;4.10;90.20
45491;DHT22;31237;45.586;13.782;2023-02-26T04:55:47;4.10;90.50
45491;DHT22;31237;45.586;13.782;2023-02-26T04:58:13;4.10;90.40
45491;DHT22;31237;45.586;13.782;2023-02-26T05:00:39;4.00;90.00
45491;DHT22;31237;45.586;13.782;2023-02-26T05:03:05;4.00;89.50
45491;DHT22;31237;45.586;13.782;2023-02-26T05:05:31;3.90;88.70
45491;DHT22;31237;45.586;13.782;2023-02-26T05:07:57;4.00;87.60
45491;DHT22;31237;45.586;13.782;2023-02-26T05:10:23;4.00;87.40
45491;DHT22;31237;45.586;13.782;2023-02-26T05:12:49;3.90;86.70
45491;DHT22;31237;45.586;13.782;2023-02-26T05:15:15;3.90;86.20
45491;DHT22;31237;45.586;13.782;2023-02-26T05:17:41;3.90;84.90
45491;DHT22;31237;45.586;13.782;2023-02-26T05:20:07;3.90;85.30
45491;DHT22;31237;45.586;13.782;2023-02-26T05:22:35;3.90;85.40
45491;DHT22;31237;45.586;13.782;2023-02-26T05:25:02;3.90;84.20
45491;DHT22;31237;45.586;13.782;2023-02-26T05:27:29;3.90;83.40
45491;DHT22;31237;45.586;13.782;2023-02-26T05:29:55;3.80;83.70
45491;DHT22;31237;45.586;13.782;2023-02-26T05:32:21;3.80;83.70
45491;DHT22;31237;45.586;13.782;2023-02-26T05:34:47;3.80;83.70
45491;DHT22;31237;45.586;13.782;2023-02-26T05:37:12;3.80;82.00
45491;DHT22;31237;45.586;13.782;2023-02-26T05:39:38;3.80;82.90
45491;DHT22;31237;45.586;13.782;2023-02-26T05:42:06;3.70;83.20
45491;DHT22;31237;45.586;13.782;2023-02-26T05:44:32;3.70;82.30
45491;DHT22;31237;45.586;13.782;2023-02-26T05:47:03;3.70;82.50
45491;DHT22;31237;45.586;13.782;2023-02-26T05:49:28;3.60;82.50
45491;DHT22;31237;45.586;13.782;2023-02-26T05:51:54;3.60;82.70
45491;DHT22;31237;45.586;13.782;2023-02-26T05:54:20;3.60;82.90
45491;DHT22;31237;45.586;13.782;2023-02-26T05:56:46;3.50;82.60
45491;DHT22;31237;45.586;13.782;2023-02-26T05:59:11;3.50;82.60
45491;DHT22;31237;45.586;13.782;2023-02-26T06:01:37;3.50;82.70
45491;DHT22;31237;45.586;13.782;2023-02-26T06:04:04;3.50;83.50
45491;DHT22;31237;45.586;13.782;2023-02-26T06:06:31;3.50;83.70
45491;DHT22;31237;45.586;13.782;2023-02-26T06:08:56;3.50;83.80
45491;DHT22;31237;45.586;13.782;2023-02-26T06:11:22;3.40;84.30
45491;DHT22;31237;45.586;13.782;2023-02-26T06:13:48;3.40;84.40
45491;DHT22;31237;45.586;13.782;2023-02-26T06:16:14;3.40;84.00
45491;DHT22;31237;45.586;13.782;2023-02-26T06:18:52;3.40;84.30
45491;DHT22;31237;45.586;13.782;2023-02-26T06:21:19;3.40;84.40
45491;DHT22;31237;45.586;13.782;2023-02-26T06:23:44;3.40;83.20
45491;DHT22;31237;45.586;13.782;2023-02-26T06:26:10;3.40;82.70
45491;DHT22;31237;45.586;13.782;2023-02-26T06:28:36;3.40;82.00
45491;DHT22;31237;45.586;13.782;2023-02-26T06:31:02;3.40;82.70
45491;DHT22;31237;45.586;13.782;2023-02-26T06:33:28;3.50;82.20
45491;DHT22;31237;45.586;13.782;2023-02-26T06:35:53;3.50;81.80
45491;DHT22;31237;45.586;13.782;2023-02-26T06:38:20;3.50;82.00
45491;DHT22;31237;45.586;13.782;2023-02-26T06:40:46;3.50;80.20
45491;DHT22;31237;45.586;13.782;2023-02-26T06:43:12;3.60;79.90
45491;DHT22;31237;45.586;13.782;2023-02-26T06:45:38;3.60;79.70
45491;DHT22;31237;45.586;13.782;2023-02-26T06:48:03;3.70;79.60
45491;DHT22;31237;45.586;13.782;2023-02-26T06:50:29;3.70;78.90
45491;DHT22;31237;45.586;13.782;2023-02-26T06:52:56;3.70;79.00
45491;DHT22;31237;45.586;13.782;2023-02-26T06:55:22;3.70;79.10
45491;DHT22;31237;45.586;13.782;2023-02-26T06:57:55;3.60;79.70
45491;DHT22;31237;45.586;13.782;2023-02-26T07:00:22;3.60;79.00
45491;DHT22;31237;45.586;13.782;2023-02-26T07:02:48;3.60;79.30
45491;DHT22;31237;45.586;13.782;2023-02-26T07:05:14;3.60;79.60
45491;DHT22;31237;45.586;13.782;2023-02-26T07:07:40;3.60;79.50
45491;DHT22;31237;45.586;13.782;2023-02-26T07:10:08;3.60;78.60
45491;DHT22;31237;45.586;13.782;2023-02-26T07:12:34;3.60;78.80
45491;DHT22;31237;45.586;13.782;2023-02-26T07:15:00;3.60;79.20
45491;DHT22;31237;45.586;13.782;2023-02-26T07:17:25;3.60;78.70
45491;DHT22;31237;45.586;13.782;2023-02-26T07:19:51;3.60;78.20
45491;DHT22;31237;45.586;13.782;2023-02-26T07:22:19;3.60;77.80
45491;DHT22;31237;45.586;13.782;2023-02-26T07:24:45;3.60;78.50
45491;DHT22;31237;45.586;13.782;2023-02-26T07:27:11;3.60;78.20
45491;DHT22;31237;45.586;13.782;2023-02-26T07:29:37;3.60;78.00
45491;DHT22;31237;45.586;13.782;2023-02-26T07:32:03;3.60;78.30
45491;DHT22;31237;45.586;13.782;2023-02-26T07:34:29;3.60;78.30
45491;DHT22;31237;45.586;13.782;2023-02-26T07:36:55;3.60;78.00
45491;DHT22;31237;45.586;13.782;2023-02-26T07:39:21;3.60;77.60
45491;DHT22;31237;45.586;13.782;2023-02-26T07:41:47;3.60;77.40
45491;DHT22;31237;45.586;13.782;2023-02-26T07:44:15;3.60;77.40
45491;DHT22;31237;45.586;13.782;2023-02-26T07:46:41;3.60;77.40
45491;DHT22;31237;45.586;13.782;2023-02-26T07:49:07;3.60;77.90
45491;DHT22;31237;45.586;13.782;2023-02-26T07:51:32;3.60;77.90
45491;DHT22;31237;45.586;13.782;2023-02-26T07:53:58;3.60;77.60
45491;DHT22;31237;45.586;13.782;2023-02-26T07:56:24;3.60;77.80
45491;DHT22;31237;45.586;13.782;2023-02-26T07:58:50;3.70;77.50
45491;DHT22;31237;45.586;13.782;2023-02-26T08:01:15;3.70;77.70
45491;DHT22;31237;45.586;13.782;2023-02-26T08:03:41;3.70;77.40
45491;DHT22;31237;45.586;13.782;2023-02-26T08:06:07;3.70;77.10
45491;DHT22;31237;45.586;13.782;2023-02-26T08:08:33;3.70;78.10
45491;DHT22;31237;45.586;13.782;2023-02-26T08:11:00;3.60;77.80
45491;DHT22;31237;45.586;13.782;2023-02-26T08:13:27;3.60;78.20
45491;DHT22;31237;45.586;13.782;2023-02-26T08:15:53;3.60;78.20
45491;DHT22;31237;45.586;13.782;2023-02-26T08:18:18;3.60;77.70
45491;DHT22;31237;45.586;13.782;2023-02-26T08:20:45;3.60;78.00
45491;DHT22;31237;45.586;13.782;2023-02-26T08:23:11;3.60;77.90
45491;DHT22;31237;45.586;13.782;2023-02-26T08:25:37;3.60;77.60
45491;DHT22;31237;45.586;13.782;2023-02-26T08:28:03;3.60;76.40
45491;DHT22;31237;45.586;13.782;2023-02-26T08:30:29;3.60;75.40
45491;DHT22;31237;45.586;13.782;2023-02-26T08:32:55;3.60;76.20
45491;DHT22;31237;45.586;13.782;2023-02-26T08:35:20;3.60;74.40
45491;DHT22;31237;45.586;13.782;2023-02-26T08:37:46;3.60;73.80
45491;DHT22;31237;45.586;13.782;2023-02-26T08:40:13;3.60;74.30
45491;DHT22;31237;45.586;13.782;2023-02-26T08:42:38;3.60;73.40
45491;DHT22;31237;45.586;13.782;2023-02-26T08:45:05;3.60;72.90
45491;DHT22;31237;45.586;13.782;2023-02-26T08:47:31;3.60;72.70
45491;DHT22;31237;45.586;13.782;2023-02-26T08:49:56;3.60;71.70
45491;DHT22;31237;45.586;13.782;2023-02-26T08:52:23;3.60;72.00
45491;DHT22;31237;45.586;13.782;2023-02-26T08:54:49;3.60;72.10
45491;DHT22;31237;45.586;13.782;2023-02-26T08:57:15;3.60;73.00
45491;DHT22;31237;45.586;13.782;2023-02-26T08:59:41;3.60;73.00
45491;DHT22;31237;45.586;13.782;2023-02-26T09:02:08;3.60;73.20
45491;DHT22;31237;45.586;13.782;2023-02-26T09:04:34;3.60;73.90
45491;DHT22;31237;45.586;13.782;2023-02-26T09:07:00;3.70;73.40
45491;DHT22;31237;45.586;13.782;2023-02-26T09:09:26;3.60;73.10
45491;DHT22;31237;45.586;13.782;2023-02-26T09:11:51;3.60;72.80
45491;DHT22;31237;45.586;13.782;2023-02-26T09:14:17;3.60;73.10
45491;DHT22;31237;45.586;13.782;2023-02-26T09:16:43;3.60;73.00
45491;DHT22;31237;45.586;13.782;2023-02-26T09:19:08;3.60;72.60
45491;DHT22;31237;45.586;13.782;2023-02-26T09:21:34;3.70;72.40
45491;DHT22;31237;45.586;13.782;2023-02-26T09:24:00;3.70;73.40
45491;DHT22;31237;45.586;13.782;2023-02-26T09:26:26;3.80;73.40
45491;DHT22;31237;45.586;13.782;2023-02-26T09:28:51;3.80;71.60
45491;DHT22;31237;45.586;13.782;2023-02-26T09:31:17;3.80;72.50
45491;DHT22;31237;45.586;13.782;2023-02-26T09:33:43;3.90;71.60
45491;DHT22;31237;45.586;13.782;2023-02-26T09:36:09;4.00;71.80
45491;DHT22;31237;45.586;13.782;2023-02-26T09:38:35;4.00;71.10
45491;DHT22;31237;45.586;13.782;2023-02-26T09:43:59;4.10;69.60
45491;DHT22;31237;45.586;13.782;2023-02-26T09:49:08;4.30;69.40
45491;DHT22;31237;45.586;13.782;2023-02-26T09:51:36;4.30;68.30
45491;DHT22;31237;45.586;13.782;2023-02-26T09:54:24;4.30;69.20
45491;DHT22;31237;45.586;13.782;2023-02-26T09:56:51;4.30;68.90
45491;DHT22;31237;45.586;13.782;2023-02-26T09:59:18;4.40;68.20
45491;DHT22;31237;45.586;13.782;2023-02-26T10:12:28;4.40;70.10
45491;DHT22;31237;45.586;13.782;2023-02-26T10:15:02;4.30;69.50
45491;DHT22;31237;45.586;13.782;2023-02-26T10:23:28;4.20;70.50
45491;DHT22;31237;45.586;13.782;2023-02-26T10:29:13;4.30;70.10
45491;DHT22;31237;45.586;13.782;2023-02-26T10:34:31;4.30;69.20
45491;DHT22;31237;45.586;13.782;2023-02-26T10:42:13;4.40;64.20
45491;DHT22;31237;45.586;13.782;2023-02-26T10:50:32;4.40;63.20
45491;DHT22;31237;45.586;13.782;2023-02-26T10:52:58;4.40;63.20
45491;DHT22;31237;45.586;13.782;2023-02-26T10:58:12;4.30;63.70
45491;DHT22;31237;45.586;13.782;2023-02-26T11:00:43;4.30;65.50
45491;DHT22;31237;45.586;13.782;2023-02-26T11:03:17;4.20;65.80
45491;DHT22;31237;45.586;13.782;2023-02-26T11:05:43;4.20;66.60
45491;DHT22;31237;45.586;13.782;2023-02-26T11:08:17;4.20;66.90
45491;DHT22;31237;45.586;13.782;2023-02-26T11:10:54;4.20;67.50
45491;DHT22;31237;45.586;13.782;2023-02-26T11:13:24;4.10;67.20
45491;DHT22;31237;45.586;13.782;2023-02-26T11:15:54;4.10;67.80
45491;DHT22;31237;45.586;13.782;2023-02-26T11:18:39;4.10;67.80
45491;DHT22;31237;45.586;13.782;2023-02-26T11:21:07;4.10;67.90
45491;DHT22;31237;45.586;13.782;2023-02-26T11:23:33;4.10;67.20
45491;DHT22;31237;45.586;13.782;2023-02-26T11:26:06;4.10;67.50
45491;DHT22;31237;45.586;13.782;2023-02-26T11:28:41;4.00;67.20
45491;DHT22;31237;45.586;13.782;2023-02-26T11:31:09;4.00;68.10
45491;DHT22;31237;45.586;13.782;2023-02-26T11:33:37;4.00;67.50
45491;DHT22;31237;45.586;13.782;2023-02-26T11:36:08;4.00;67.50
45491;DHT22;31237;45.586;13.782;2023-02-26T11:38:35;4.00;68.60
45491;DHT22;31237;45.586;13.782;2023-02-26T11:41:01;4.10;68.60
45491;DHT22;31237;45.586;13.782;2023-02-26T11:43:39;4.00;68.80
45491;DHT22;31237;45.586;13.782;2023-02-26T11:46:06;4.10;68.20
45491;DHT22;31237;45.586;13.782;2023-02-26T11:48:49;4.10;68.20
45491;DHT22;31237;45.586;13.782;2023-02-26T11:51:21;4.10;66.20
45491;DHT22;31237;45.586;13.782;2023-02-26T11:53:52;4.00;66.50
45491;DHT22;31237;45.586;13.782;2023-02-26T11:56:29;4.10;66.70
45491;DHT22;31237;45.586;13.782;2023-02-26T11:58:59;4.10;64.30
45491;DHT22;31237;45.586;13.782;2023-02-26T12:01:28;4.10;64.60
45491;DHT22;31237;45.586;13.782;2023-02-26T12:03:58;4.00;64.50
45491;DHT22;31237;45.586;13.782;2023-02-26T12:06:25;4.00;65.60
45491;DHT22;31237;45.586;13.782;2023-02-26T12:08:50;4.00;65.80
45491;DHT22;31237;45.586;13.782;2023-02-26T12:11:40;4.00;65.80
45491;DHT22;31237;45.586;13.782;2023-02-26T12:25:38;4.00;65.00
45491;DHT22;31237;45.586;13.782;2023-02-26T12:36:44;4.00;66.40
45491;DHT22;31237;45.586;13.782;2023-02-26T12:56:18;4.10;67.00
45491;DHT22;31237;45.586;13.782;2023-02-26T13:04:41;4.20;65.00
45491;DHT22;31237;45.586;13.782;2023-02-26T13:16:09;4.30;64.60
45491;DHT22;31237;45.586;13.782;2023-02-26T13:21:38;4.30;63.90
45491;DHT22;31237;45.586;13.782;2023-02-26T13:24:09;4.40;63.20
45491;DHT22;31237;45.586;13.782;2023-02-26T13:26:37;4.40;62.80
45491;DHT22;31237;45.586;13.782;2023-02-26T13:31:44;4.50;63.20
45491;DHT22;31237;45.586;13.782;2023-02-26T13:34:16;4.50;63.20
45491;DHT22;31237;45.586;13.782;2023-02-26T13:36:44;4.60;61.80
45491;DHT22;31237;45.586;13.782;2023-02-26T13:55:52;4.30;64.30
45491;DHT22;31237;45.586;13.782;2023-02-26T14:01:03;4.30;64.10
45491;DHT22;31237;45.586;13.782;2023-02-26T14:03:32;4.30;63.40
45491;DHT22;31237;45.586;13.782;2023-02-26T14:06:18;4.30;63.30
45491;DHT22;31237;45.586;13.782;2023-02-26T14:09:01;4.30;64.30
45491;DHT22;31237;45.586;13.782;2023-02-26T14:11:45;4.30;63.90
45491;DHT22;31237;45.586;13.782;2023-02-26T14:16:39;4.30;64.50
45491;DHT22;31237;45.586;13.782;2023-02-26T14:21:56;4.30;65.20
45491;DHT22;31237;45.586;13.782;2023-02-26T14:24:44;4.20;66.30
45491;DHT22;31237;45.586;13.782;2023-02-26T14:32:51;4.10;66.90
45491;DHT22;31237;45.586;13.782;2023-02-26T14:35:27;4.10;67.50
45491;DHT22;31237;45.586;13.782;2023-02-26T14:38:06;4.10;67.50
45491;DHT22;31237;45.586;13.782;2023-02-26T14:40:48;4.10;67.90
45491;DHT22;31237;45.586;13.782;2023-02-26T14:43:41;4.10;67.60
45491;DHT22;31237;45.586;13.782;2023-02-26T14:46:06;4.10;67.30
45491;DHT22;31237;45.586;13.782;2023-02-26T14:48:33;4.10;67.10
45491;DHT22;31237;45.586;13.782;2023-02-26T14:59:31;4.00;67.90
45491;DHT22;31237;45.586;13.782;2023-02-26T15:07:17;4.00;67.40
45491;DHT22;31237;45.586;13.782;2023-02-26T15:25:53;3.90;67.60
45491;DHT22;31237;45.586;13.782;2023-02-26T15:30:50;3.80;68.60
45491;DHT22;31237;45.586;13.782;2023-02-26T15:33:19;3.80;68.10
45491;DHT22;31237;45.586;13.782;2023-02-26T15:35:47;3.80;67.40
45491;DHT22;31237;45.586;13.782;2023-02-26T15:38:14;3.80;67.40
45491;DHT22;31237;45.586;13.782;2023-02-26T15:40:40;3.80;68.10
45491;DHT22;31237;45.586;13.782;2023-02-26T15:43:08;3.80;68.40
45491;DHT22;31237;45.586;13.782;2023-02-26T15:45:37;3.80;67.80
45491;DHT22;31237;45.586;13.782;2023-02-26T15:48:08;3.80;68.40
45491;DHT22;31237;45.586;13.782;2023-02-26T15:50:39;3.80;67.90
45491;DHT22;31237;45.586;13.782;2023-02-26T15:53:07;3.70;67.40
45491;DHT22;31237;45.586;13.782;2023-02-26T15:55:37;3.70;67.70
45491;DHT22;31237;45.586;13.782;2023-02-26T15:58:05;3.70;67.40
45491;DHT22;31237;45.586;13.782;2023-02-26T16:00:35;3.70;67.70
45491;DHT22;31237;45.586;13.782;2023-02-26T16:03:02;3.70;67.70
45491;DHT22;31237;45.586;13.782;2023-02-26T16:05:29;3.70;67.60
45491;DHT22;31237;45.586;13.782;2023-02-26T16:07:56;3.70;67.80
45491;DHT22;31237;45.586;13.782;2023-02-26T16:12:54;3.70;67.70
45491;DHT22;31237;45.586;13.782;2023-02-26T16:17:55;3.70;68.00
45491;DHT22;31237;45.586;13.782;2023-02-26T16:20:23;3.70;67.70
45491;DHT22;31237;45.586;13.782;2023-02-26T16:22:55;3.70;68.00
45491;DHT22;31237;45.586;13.782;2023-02-26T16:25:39;3.70;68.60
45491;DHT22;31237;45.586;13.782;2023-02-26T16:28:27;3.60;69.20
45491;DHT22;31237;45.586;13.782;2023-02-26T16:30:55;3.70;69.30
45491;DHT22;31237;45.586;13.782;2023-02-26T16:33:24;3.60;69.80
45491;DHT22;31237;45.586;13.782;2023-02-26T16:36:11;3.60;70.60
45491;DHT22;31237;45.586;13.782;2023-02-26T16:38:48;3.60;70.90
45491;DHT22;31237;45.586;13.782;2023-02-26T16:41:14;3.50;71.40
45491;DHT22;31237;45.586;13.782;2023-02-26T16:46:12;3.50;71.90
45491;DHT22;31237;45.586;13.782;2023-02-26T16:48:48;3.50;70.70
45491;DHT22;31237;45.586;13.782;2023-02-26T16:51:20;3.40;70.70
45491;DHT22;31237;45.586;13.782;2023-02-26T16:53:49;3.40;71.10
45491;DHT22;31237;45.586;13.782;2023-02-26T16:56:21;3.50;71.00
45491;DHT22;31237;45.586;13.782;2023-02-26T16:59:05;3.40;70.80
45491;DHT22;31237;45.586;13.782;2023-02-26T17:01:41;3.40;70.50
45491;DHT22;31237;45.586;13.782;2023-02-26T17:04:14;3.40;71.00
45491;DHT22;31237;45.586;13.782;2023-02-26T17:06:40;3.40;71.20
45491;DHT22;31237;45.586;13.782;2023-02-26T17:09:14;3.40;70.50
45491;DHT22;31237;45.586;13.782;2023-02-26T17:11:48;3.40;70.30
45491;DHT22;31237;45.586;13.782;2023-02-26T17:14:19;3.40;69.90
45491;DHT22;31237;45.586;13.782;2023-02-26T17:16:48;3.40;70.50
45491;DHT22;31237;45.586;13.782;2023-02-26T17:19:14;3.30;71.10
45491;DHT22;31237;45.586;13.782;2023-02-26T17:21:53;3.30;71.70
45491;DHT22;31237;45.586;13.782;2023-02-26T17:24:37;3.30;72.80
45491;DHT22;31237;45.586;13.782;2023-02-26T17:27:08;3.20;72.50
45491;DHT22;31237;45.586;13.782;2023-02-26T17:29:39;3.20;72.10
45491;DHT22;31237;45.586;13.782;2023-02-26T17:32:19;3.20;71.80
45491;DHT22;31237;45.586;13.782;2023-02-26T17:34:46;3.20;72.10
45491;DHT22;31237;45.586;13.782;2023-02-26T17:37:12;3.20;72.40
45491;DHT22;31237;45.586;13.782;2023-02-26T17:39:38;3.10;72.40
45491;DHT22;31237;45.586;13.782;2023-02-26T17:42:13;3.10;72.70
45491;DHT22;31237;45.586;13.782;2023-02-26T17:44:40;3.10;72.20
45491;DHT22;31237;45.586;13.782;2023-02-26T17:47:11;3.10;71.60
45491;DHT22;31237;45.586;13.782;2023-02-26T17:49:39;3.00;71.60
45491;DHT22;31237;45.586;13.782;2023-02-26T17:52:05;3.00;71.00
45491;DHT22;31237;45.586;13.782;2023-02-26T17:54:30;3.10;70.10
45491;DHT22;31237;45.586;13.782;2023-02-26T17:56:56;3.10;70.50
45491;DHT22;31237;45.586;13.782;2023-02-26T17:59:24;3.10;69.70
45491;DHT22;31237;45.586;13.782;2023-02-26T18:01:49;3.10;69.90
45491;DHT22;31237;45.586;13.782;2023-02-26T18:04:15;3.10;70.30
45491;DHT22;31237;45.586;13.782;2023-02-26T18:06:41;3.10;70.00
45491;DHT22;31237;45.586;13.782;2023-02-26T18:09:10;3.00;70.10
45491;DHT22;31237;45.586;13.782;2023-02-26T18:11:37;3.10;69.80
45491;DHT22;31237;45.586;13.782;2023-02-26T18:14:03;3.00;69.60
45491;DHT22;31237;45.586;13.782;2023-02-26T18:16:36;3.10;69.70
45491;DHT22;31237;45.586;13.782;2023-02-26T18:19:03;3.00;70.00
45491;DHT22;31237;45.586;13.782;2023-02-26T18:21:30;3.00;69.50
45491;DHT22;31237;45.586;13.782;2023-02-26T18:23:56;3.00;69.60
45491;DHT22;31237;45.586;13.782;2023-02-26T18:26:23;3.00;69.80
45491;DHT22;31237;45.586;13.782;2023-02-26T18:28:52;3.00;69.60
45491;DHT22;31237;45.586;13.782;2023-02-26T18:31:20;3.00;69.80
45491;DHT22;31237;45.586;13.782;2023-02-26T18:33:47;3.00;69.50
45491;DHT22;31237;45.586;13.782;2023-02-26T18:36:27;3.00;69.60
45491;DHT22;31237;45.586;13.782;2023-02-26T18:39:03;3.00;69.20
45491;DHT22;31237;45.586;13.782;2023-02-26T18:41:30;3.00;68.70
45491;DHT22;31237;45.586;13.782;2023-02-26T18:43:57;3.00;67.40
45491;DHT22;31237;45.586;13.782;2023-02-26T18:46:23;3.10;67.70
45491;DHT22;31237;45.586;13.782;2023-02-26T18:48:49;3.00;67.60
45491;DHT22;31237;45.586;13.782;2023-02-26T18:51:15;3.10;67.70
45491;DHT22;31237;45.586;13.782;2023-02-26T18:53:41;3.10;68.00
45491;DHT22;31237;45.586;13.782;2023-02-26T18:56:06;3.10;67.70
45491;DHT22;31237;45.586;13.782;2023-02-26T18:58:32;3.10;67.40
45491;DHT22;31237;45.586;13.782;2023-02-26T19:00:58;3.00;67.20
45491;DHT22;31237;45.586;13.782;2023-02-26T19:03:24;3.00;66.90
45491;DHT22;31237;45.586;13.782;2023-02-26T19:06:01;3.00;65.70
45491;DHT22;31237;45.586;13.782;2023-02-26T19:08:28;3.10;65.60
45491;DHT22;31237;45.586;13.782;2023-02-26T19:10:55;3.00;65.60
45491;DHT22;31237;45.586;13.782;2023-02-26T19:13:21;3.10;66.10
45491;DHT22;31237;45.586;13.782;2023-02-26T19:15:47;3.00;66.60
45491;DHT22;31237;45.586;13.782;2023-02-26T19:18:14;3.00;66.60
45491;DHT22;31237;45.586;13.782;2023-02-26T19:20:40;3.00;67.10
45491;DHT22;31237;45.586;13.782;2023-02-26T19:23:06;3.00;67.10
45491;DHT22;31237;45.586;13.782;2023-02-26T19:25:34;3.00;68.00
45491;DHT22;31237;45.586;13.782;2023-02-26T19:27:59;3.00;68.40
45491;DHT22;31237;45.586;13.782;2023-02-26T19:30:25;2.90;68.10
45491;DHT22;31237;45.586;13.782;2023-02-26T19:32:51;2.90;67.90